Time;durP1;ratioP1;P1;durP2;ratioP2;P2;SDS_P1;SDS_P2;PMS_P1;PMS_P2;Temp;Humidity;BMP_temperature;BMP_pressure;BME280_temperature;BME280_humidity;BME280_pressure;Samples;Min_cycle;Max_cycle;Signal;HPM_P1;HPM_P2
2023/10/10 00:00:04;;;;;;;0.00;0.00;;;16.20;99.90;;;;;;6193506;23;20019;-85
2023/10/10 00:02:31;;;;;;;0.00;0.00;;;16.00;99.90;;;;;;6217063;23;20083;-84
2023/10/10 00:05:03;;;;;;;0.00;0.00;;;16.20;99.90;;;;;;6217910;23;20011;-85
2023/10/10 00:07:29;;;;;;;0.00;0.00;;;16.30;99.90;;;;;;6244415;23;19992;-85
2023/10/10 00:09:56;;;;;;;0.00;0.00;;;;;;;;;;6215439;23;20007;-84
2023/10/10 00:12:26;;;;;;;0.00;0.00;;;16.20;99.90;;;;;;6215602;23;20011;-85
2023/10/10 00:14:58;;;;;;;0.00;0.00;;;16.10;99.90;;;;;;6244026;23;20003;-85
2023/10/10 00:17:29;;;;;;;0.00;0.00;;;16.10;99.90;;;;;;6217095;23;20001;-85
2023/10/10 00:20:15;;;;;;;0.00;0.00;;;16.10;99.90;;;;;;6217832;23;20011;-85
2023/10/10 00:22:43;;;;;;;0.00;0.00;;;16.30;99.90;;;;;;6244093;22;20004;-85
2023/10/10 00:25:12;;;;;;;0.00;0.00;;;16.30;99.90;;;;;;6217507;23;20407;-85
2023/10/10 00:27:39;;;;;;;0.00;0.00;;;;;;;;;;6217585;23;20608;-85
2023/10/10 00:30:06;;;;;;;0.00;0.00;;;16.50;99.90;;;;;;6217098;23;20000;-85
2023/10/10 00:32:35;;;;;;;0.00;0.00;;;16.20;99.90;;;;;;6217260;23;20004;-85
2023/10/10 00:35:02;;;;;;;0.00;0.00;;;;;;;;;;6244732;23;20011;-85
2023/10/10 00:37:33;;;;;;;0.00;0.00;;;16.30;99.90;;;;;;6217581;23;20239;-85
2023/10/10 00:40:07;;;;;;;0.00;0.00;;;16.20;99.90;;;;;;6215811;23;20378;-85
2023/10/10 00:42:41;;;;;;;0.00;0.00;;;16.10;99.90;;;;;;6217367;23;20012;-84
2023/10/10 00:45:14;;;;;;;0.00;0.00;;;16.20;99.90;;;;;;6215067;23;20081;-85
2023/10/10 00:47:50;;;;;;;0.00;0.00;;;16.10;99.90;;;;;;6214424;23;20011;-85
2023/10/10 00:50:18;;;;;;;0.00;0.00;;;;;;;;;;6217562;23;20083;-86
2023/10/10 00:52:48;;;;;;;0.00;0.00;;;16.10;99.90;;;;;;6217673;23;20001;-85
2023/10/10 00:55:14;;;;;;;0.00;0.00;;;18.00;99.90;;;;;;6217175;23;20008;-85
2023/10/10 00:57:42;;;;;;;0.00;0.00;;;;;;;;;;6217190;23;20317;-85
2023/10/10 01:00:14;;;;;;;0.08;0.08;;;16.00;99.90;;;;;;6216458;23;20026;-84
2023/10/10 01:02:42;;;;;;;0.00;0.00;;;16.20;99.90;;;;;;6216691;23;20339;-84
2023/10/10 01:05:14;;;;;;;0.00;0.00;;;16.20;99.90;;;;;;6216930;23;20016;-84
2023/10/10 01:07:46;;;;;;;0.00;0.00;;;;;;;;;;6216654;23;20030;-86
2023/10/10 01:10:16;;;;;;;0.00;0.00;;;;;;;;;;6216613;23;20000;-85
2023/10/10 01:12:42;;;;;;;0.00;0.00;;;;;;;;;;6216704;23;20065;-85
2023/10/10 01:15:16;;;;;;;0.00;0.00;;;16.10;99.90;;;;;;6217376;23;20118;-85
2023/10/10 01:17:43;;;;;;;0.00;0.00;;;16.20;99.90;;;;;;6217900;23;20015;-84
2023/10/10 01:20:19;;;;;;;0.00;0.00;;;16.20;99.90;;;;;;6244720;23;20008;-84
2023/10/10 01:22:48;;;;;;;0.00;0.00;;;16.10;99.90;;;;;;6217732;23;20004;-87
2023/10/10 01:33:22;;;;;;;0.00;0.00;;;16.00;99.90;;;;;;6255937;22;20435;-86
2023/10/10 01:35:55;;;;;;;0.00;0.00;;;16.20;99.90;;;;;;6222816;23;20011;-86
2023/10/10 01:38:38;;;;;;;0.00;0.00;;;16.00;99.90;;;;;;6219838;23;20011;-85
2023/10/10 01:41:15;;;;;;;0.00;0.00;;;16.10;99.90;;;;;;6220558;23;20000;-86
2023/10/10 01:43:48;;;;;;;0.00;0.00;;;16.10;99.90;;;;;;6218482;23;20435;-85
2023/10/10 01:46:18;;;;;;;0.00;0.00;;;;;;;;;;6218434;23;20024;-84
2023/10/10 01:48:44;;;;;;;0.00;0.00;;;16.10;99.90;;;;;;6245623;23;20008;-85
2023/10/10 01:51:16;;;;;;;0.00;0.00;;;16.00;99.90;;;;;;6218721;23;20011;-84
2023/10/10 01:53:42;;;;;;;0.00;0.00;;;15.90;99.90;;;;;;6242288;22;20042;-85
2023/10/10 01:56:11;;;;;;;0.00;0.00;;;;;;;;;;6218266;23;20005;-86
2023/10/10 01:58:37;;;;;;;0.00;0.00;;;16.10;99.90;;;;;;6216934;23;20000;-85
2023/10/10 02:01:13;;;;;;;0.00;0.00;;;16.10;99.90;;;;;;6215300;23;20015;-85
2023/10/10 02:03:39;;;;;;;0.00;0.00;;;16.00;99.90;;;;;;6216756;23;20343;-86
2023/10/10 02:06:09;;;;;;;0.00;0.00;;;;;;;;;;6217593;23;20004;-84
2023/10/10 02:08:36;;;;;;;0.00;0.00;;;16.10;99.90;;;;;;6216631;23;20000;-85
2023/10/10 02:11:02;;;;;;;0.00;0.00;;;16.00;99.90;;;;;;6217065;23;20010;-86
2023/10/10 02:13:33;;;;;;;0.00;0.00;;;16.10;99.90;;;;;;6216380;23;20058;-85
2023/10/10 02:15:59;;;;;;;0.00;0.00;;;;;;;;;;6216077;23;20083;-84
2023/10/10 02:18:38;;;;;;;0.00;0.00;;;16.20;99.90;;;;;;6216631;23;20008;-85
2023/10/10 02:21:15;;;;;;;0.00;0.00;;;15.90;99.90;;;;;;6217527;23;20080;-86
2023/10/10 02:23:44;;;;;;;0.00;0.00;;;;;;;;;;6216937;23;20008;-85
2023/10/10 02:26:14;;;;;;;0.00;0.00;;;;;;;;;;6218461;23;20001;-85
2023/10/10 02:28:49;;;;;;;0.00;0.00;;;16.00;99.90;;;;;;6216169;23;20079;-85
2023/10/10 02:31:16;;;;;;;0.00;0.00;;;16.10;99.90;;;;;;6216900;23;20454;-85
2023/10/10 02:33:48;;;;;;;0.00;0.00;;;16.00;99.90;;;;;;6215987;23;20008;-85
2023/10/10 02:36:16;;;;;;;0.00;0.00;;;15.90;99.90;;;;;;6216138;23;20004;-85
2023/10/10 02:38:54;;;;;;;0.00;0.00;;;;;;;;;;6216740;23;20041;-85
2023/10/10 02:44:04;;;;;;;0.00;0.00;;;15.90;99.90;;;;;;6242270;22;20105;-84
2023/10/10 02:46:38;;;;;;;0.00;0.00;;;15.80;99.90;;;;;;6215040;23;20011;-85
2023/10/10 02:49:29;;;;;;;0.00;0.00;;;16.00;99.90;;;;;;6215342;23;20057;-85
2023/10/10 02:51:55;;;;;;;0.00;0.00;;;16.00;99.90;;;;;;6215413;22;20335;-84
2023/10/10 02:54:32;;;;;;;0.00;0.00;;;16.20;99.90;;;;;;6215895;23;20061;-84
2023/10/10 02:59:51;;;;;;;0.00;0.00;;;16.00;99.90;;;;;;6243094;23;20050;-84
2023/10/10 03:02:24;;;;;;;0.00;0.00;;;15.90;99.90;;;;;;6243031;22;20007;-84
2023/10/10 03:07:27;;;;;;;0.00;0.00;;;;;;;;;;6242592;23;20004;-84
2023/10/10 03:12:37;;;;;;;0.00;0.00;;;15.90;99.90;;;;;;6248766;22;20035;-86
2023/10/10 03:15:13;;;;;;;0.00;0.00;;;16.00;99.90;;;;;;6213984;23;19999;-86
2023/10/10 03:17:52;;;;;;;0.00;0.00;;;15.90;99.90;;;;;;6242654;23;20058;-84
2023/10/10 03:23:23;;;;;;;0.00;0.00;;;15.90;99.90;;;;;;6249202;22;20008;-86
2023/10/10 03:25:54;;;;;;;0.00;0.00;;;16.00;99.90;;;;;;6217160;23;20015;-85
2023/10/10 03:28:29;;;;;;;0.00;0.00;;;15.90;99.90;;;;;;6216846;23;20031;-84
2023/10/10 03:31:22;;;;;;;0.00;0.00;;;15.90;99.90;;;;;;6218180;23;20000;-85
2023/10/10 03:34:03;;;;;;;0.00;0.00;;;16.00;99.90;;;;;;6217258;23;20008;-84
2023/10/10 03:36:39;;;;;;;0.00;0.00;;;16.00;99.90;;;;;;6216915;23;20510;-84
2023/10/10 05:23:34;;;;;;;0.00;0.00;;;14.80;99.90;;;;;;6242540;22;20083;-85
2023/10/10 05:26:02;;;;;;;0.00;0.00;;;14.80;99.90;;;;;;6243293;23;20000;-85
2023/10/10 05:28:30;;;;;;;0.10;0.10;;;14.70;99.90;;;;;;6215327;23;20015;-86
2023/10/10 05:30:57;;;;;;;0.00;0.00;;;14.80;99.90;;;;;;6216792;23;20083;-85
2023/10/10 05:33:26;;;;;;;0.00;0.00;;;14.90;99.90;;;;;;6217181;23;20004;-85
2023/10/10 05:35:59;;;;;;;0.00;0.00;;;14.80;99.90;;;;;;6217155;23;20004;-86
2023/10/10 05:38:25;;;;;;;0.00;0.00;;;;;;;;;;6216460;23;20004;-86
2023/10/10 05:40:51;;;;;;;0.00;0.00;;;;;;;;;;6215801;23;20058;-85
2023/10/10 05:43:19;;;;;;;0.00;0.00;;;;;;;;;;6216545;23;20012;-85
2023/10/10 05:45:45;;;;;;;0.00;0.00;;;;;;;;;;6242700;23;20000;-85
2023/10/10 05:48:12;;;;;;;0.00;0.00;;;;;;;;;;6216315;23;20008;-85
2023/10/10 05:50:40;;;;;;;0.00;0.00;;;;;;;;;;6215962;23;20004;-82
2023/10/10 05:53:06;;;;;;;0.00;0.00;;;14.60;99.90;;;;;;6216285;23;20423;-85
2023/10/10 05:55:35;;;;;;;0.00;0.00;;;14.70;99.90;;;;;;6216380;23;20011;-84
2023/10/10 05:58:02;;;;;;;0.00;0.00;;;;;;;;;;6217038;23;20008;-86
2023/10/10 06:00:32;;;;;;;0.00;0.00;;;14.70;99.90;;;;;;6216829;23;20012;-87
2023/10/10 06:02:57;;;;;;;0.00;0.00;;;;;;;;;;6216120;23;20182;-87
2023/10/10 06:05:23;;;;;;;0.00;0.00;;;;;;;;;;6217103;23;20312;-86
2023/10/10 06:07:49;;;;;;;0.00;0.00;;;;;;;;;;6216044;23;20427;-86
2023/10/10 06:10:16;;;;;;;0.00;0.00;;;14.90;99.90;;;;;;6216092;23;20404;-86
2023/10/10 06:12:43;;;;;;;0.00;0.00;;;15.10;99.90;;;;;;6216642;23;20439;-88
2023/10/10 06:15:11;;;;;;;0.00;0.00;;;;;;;;;;6217012;23;20066;-87
2023/10/10 06:17:38;;;;;;;0.00;0.00;;;15.10;99.90;;;;;;6216344;23;20004;-86
2023/10/10 06:20:10;;;;;;;0.00;0.00;;;15.00;99.90;;;;;;6216351;23;20008;-87
2023/10/10 06:22:36;;;;;;;0.00;0.00;;;14.90;99.90;;;;;;6216743;23;20542;-87
2023/10/10 06:25:03;;;;;;;0.00;0.00;;;;;;;;;;6216614;23;20015;-87
2023/10/10 06:27:36;;;;;;;0.00;0.00;;;15.30;99.90;;;;;;6214904;23;20646;-86
2023/10/10 06:30:04;;;;;;;0.00;0.00;;;15.30;99.90;;;;;;6234030;22;20016;-81
2023/10/10 06:32:31;;;;;;;0.00;0.00;;;15.20;99.90;;;;;;6245688;23;19992;-88
2023/10/10 06:37:44;;;;;;;0.00;0.00;;;;;;;;;;6252517;23;20008;-85
2023/10/10 06:40:10;;;;;;;0.00;0.00;;;15.40;99.90;;;;;;6243058;23;20004;-85
2023/10/10 06:42:36;;;;;;;0.00;0.00;;;15.40;99.90;;;;;;6217103;23;20079;-87
2023/10/10 06:45:21;;;;;;;0.00;0.00;;;15.40;99.90;;;;;;6244346;23;20011;-87
2023/10/10 06:47:50;;;;;;;0.00;0.00;;;15.50;99.90;;;;;;6219488;23;20087;-88
2023/10/10 06:50:21;;;;;;;0.00;0.00;;;;;;;;;;6219685;23;20008;-86
2023/10/10 06:52:47;;;;;;;0.00;0.00;;;15.50;99.90;;;;;;6217462;23;20057;-88
2023/10/10 06:55:20;;;;;;;0.00;0.00;;;15.40;99.90;;;;;;6217123;23;20011;-89
2023/10/10 06:57:57;;;;;;;0.00;0.00;;;15.60;99.90;;;;;;6216951;23;20011;-83
2023/10/10 07:02:56;;;;;;;0.00;0.00;;;15.60;99.90;;;;;;6247083;22;20019;-85
2023/10/10 07:05:26;;;;;;;0.00;0.00;;;15.60;99.90;;;;;;6242156;23;20015;-86
2023/10/10 07:07:53;;;;;;;0.00;0.00;;;15.80;99.90;;;;;;6215885;23;19996;-85
2023/10/10 07:10:35;;;;;;;0.00;0.00;;;16.00;99.90;;;;;;6243063;23;20012;-85
2023/10/10 07:13:03;;;;;;;0.00;0.00;;;16.00;99.90;;;;;;6216435;23;20447;-86
2023/10/10 07:15:37;;;;;;;0.00;0.00;;;15.90;99.90;;;;;;6216482;23;20020;-86
2023/10/10 07:18:15;;;;;;;0.00;0.00;;;15.80;99.90;;;;;;6215740;23;20058;-85
2023/10/10 07:23:37;;;;;;;0.00;0.00;;;;;;;;;;6243401;22;20098;-85
2023/10/10 07:26:05;;;;;;;0.00;0.00;;;16.00;99.90;;;;;;6215986;23;20007;-85
2023/10/10 07:28:36;;;;;;;0.00;0.00;;;16.40;99.90;;;;;;6214117;23;20028;-86
2023/10/10 07:31:02;;;;;;;0.00;0.00;;;;;;;;;;6214801;23;20008;-82
2023/10/10 07:33:40;;;;;;;0.00;0.00;;;16.70;99.90;;;;;;6241118;22;20423;-85
2023/10/10 07:36:06;;;;;;;0.00;0.00;;;;;;;;;;6213577;23;20386;-85
2023/10/10 07:38:35;;;;;;;0.00;0.00;;;;;;;;;;6213166;23;20032;-85
2023/10/10 07:41:04;;;;;;;0.00;0.00;;;;;;;;;;6215677;23;20039;-85
2023/10/10 07:43:34;;;;;;;0.00;0.00;;;;;;;;;;6214144;23;20008;-83
2023/10/10 07:46:12;;;;;;;0.00;0.00;;;;;;;;;;6242476;23;20000;-85
2023/10/10 07:48:39;;;;;;;0.00;0.00;;;;;;;;;;6215240;23;20042;-85
2023/10/10 07:51:08;;;;;;;0.00;0.00;;;;;;;;;;6215035;23;20056;-86
2023/10/10 07:53:44;;;;;;;0.00;0.00;;;17.20;99.90;;;;;;6214290;23;20316;-86
2023/10/10 07:56:10;;;;;;;0.00;0.00;;;;;;;;;;6213633;23;20012;-88
2023/10/10 08:01:31;;;;;;;0.00;0.00;;;;;;;;;;6230014;23;20019;-85
2023/10/10 08:03:57;;;;;;;0.00;0.00;;;;;;;;;;6213768;23;20004;-85
2023/10/10 08:06:23;;;;;;;0.00;0.00;;;;;;;;;;6240809;23;20004;-86
2023/10/10 08:09:09;;;;;;;0.00;0.00;;;17.70;99.90;;;;;;6214960;23;20004;-84
2023/10/10 08:11:35;;;;;;;0.00;0.00;;;17.90;99.90;;;;;;6217162;23;20004;-86
2023/10/10 08:14:05;;;;;;;0.00;0.00;;;;;;;;;;6217692;23;20050;-85
2023/10/10 08:16:33;;;;;;;0.00;0.00;;;18.20;99.90;;;;;;6217802;23;19992;-86
2023/10/10 08:19:04;;;;;;;0.00;0.00;;;;;;;;;;6217423;23;20439;-84
2023/10/10 08:21:36;;;;;;;0.00;0.00;;;18.20;99.90;;;;;;6218220;23;19996;-86
2023/10/10 08:24:03;;;;;;;0.00;0.00;;;18.40;99.90;;;;;;6217088;23;20044;-86
2023/10/10 08:26:29;;;;;;;0.00;0.00;;;18.30;99.90;;;;;;6213825;23;20004;-86
2023/10/10 08:28:55;;;;;;;0.00;0.00;;;18.40;99.90;;;;;;6215733;23;20008;-87
2023/10/10 08:31:22;;;;;;;0.00;0.00;;;18.30;99.90;;;;;;6217350;23;20098;-85
2023/10/10 08:33:48;;;;;;;0.00;0.00;;;18.40;99.90;;;;;;6216266;23;20309;-86
2023/10/10 08:36:24;;;;;;;0.00;0.00;;;18.40;99.90;;;;;;6216042;23;20015;-85
2023/10/10 08:38:54;;;;;;;0.00;0.00;;;18.60;99.90;;;;;;6217119;23;20004;-85
2023/10/10 08:41:29;;;;;;;0.00;0.00;;;18.70;99.90;;;;;;6215970;23;20011;-85
2023/10/10 08:43:58;;;;;;;0.00;0.00;;;18.70;99.90;;;;;;6216164;23;20007;-85
2023/10/10 08:46:29;;;;;;;0.00;0.00;;;18.60;99.90;;;;;;6216490;23;20397;-87
2023/10/10 08:48:59;;;;;;;0.00;0.00;;;18.70;99.90;;;;;;6215241;23;20000;-82
2023/10/10 08:51:32;;;;;;;0.00;0.00;;;18.90;99.90;;;;;;6213835;23;20000;-84
2023/10/10 08:53:59;;;;;;;0.00;0.00;;;18.90;99.90;;;;;;6216063;23;20431;-83
2023/10/10 08:56:25;;;;;;;0.00;0.00;;;;;;;;;;6215377;23;20090;-84
2023/10/10 08:58:51;;;;;;;0.00;0.00;;;;;;;;;;6215344;23;20004;-85
2023/10/10 09:01:17;;;;;;;0.00;0.00;;;19.30;99.90;;;;;;6216479;23;20016;-86
2023/10/10 09:03:45;;;;;;;0.00;0.00;;;;;;;;;;6214794;23;20075;-85
2023/10/10 09:06:16;;;;;;;0.00;0.00;;;19.50;99.90;;;;;;6216472;23;20382;-81
2023/10/10 09:08:49;;;;;;;0.00;0.00;;;;;;;;;;6243701;23;19997;-84
2023/10/10 09:11:20;;;;;;;0.00;0.00;;;19.60;99.90;;;;;;6243826;23;20007;-87
2023/10/10 09:13:52;;;;;;;0.00;0.00;;;19.60;99.90;;;;;;6216150;23;20004;-85
2023/10/10 09:16:41;;;;;;;0.00;0.00;;;19.60;99.90;;;;;;6217436;23;20791;-86
2023/10/10 09:19:08;;;;;;;0.00;0.00;;;19.70;99.90;;;;;;6217182;23;20012;-86
2023/10/10 09:21:44;;;;;;;0.00;0.00;;;19.70;99.90;;;;;;6216528;23;20011;-85
2023/10/10 09:24:27;;;;;;;0.00;0.00;;;19.70;99.90;;;;;;6216221;23;20589;-86
2023/10/10 09:26:56;;;;;;;0.00;0.00;;;19.60;99.90;;;;;;6217040;23;20004;-85
2023/10/10 09:29:34;;;;;;;0.00;0.00;;;19.60;99.90;;;;;;6216211;23;20435;-86
2023/10/10 09:32:05;;;;;;;0.00;0.00;;;19.70;99.90;;;;;;6215798;22;20012;-82
2023/10/10 09:34:35;;;;;;;0.00;0.00;;;20.00;99.90;;;;;;6217065;23;20030;-86
2023/10/10 09:37:07;;;;;;;0.00;0.00;;;20.00;99.90;;;;;;6215937;23;20058;-84
2023/10/10 09:39:40;;;;;;;0.00;0.00;;;;;;;;;;6217121;23;20343;-84
2023/10/10 09:42:28;;;;;;;0.00;0.00;;;20.00;99.90;;;;;;6216500;22;20039;-85
2023/10/10 09:50:35;;;;;;;0.00;0.00;;;20.30;99.90;;;;;;6208360;23;20011;-86
2023/10/10 09:53:02;;;;;;;0.00;0.00;;;20.30;99.90;;;;;;6216799;23;20055;-85
2023/10/10 10:00:45;;;;;;;0.00;0.00;;;20.10;99.90;;;;;;6245524;23;20336;-85
2023/10/10 10:06:06;;;;;;;0.00;0.00;;;20.30;99.90;;;;;;6253357;23;20004;-86
2023/10/10 10:09:04;;;;;;;0.00;0.00;;;20.50;99.90;;;;;;6194335;23;20004;-86
2023/10/10 10:11:38;;;;;;;0.00;0.00;;;20.50;99.90;;;;;;6214605;23;20054;-85
2023/10/10 10:14:35;;;;;;;0.00;0.00;;;20.60;99.90;;;;;;6214647;23;20008;-82
2023/10/10 10:17:47;;;;;;;0.00;0.00;;;20.60;99.90;;;;;;6214252;23;20435;-86
2023/10/10 10:20:33;;;;;;;0.00;0.00;;;20.70;99.90;;;;;;6216049;23;19996;-87
2023/10/10 10:23:00;;;;;;;0.00;0.00;;;20.90;99.90;;;;;;6215224;23;20083;-85
2023/10/10 10:25:32;;;;;;;0.00;0.00;;;21.00;99.90;;;;;;6216183;23;20008;-85
2023/10/10 10:28:10;;;;;;;0.00;0.00;;;21.00;99.90;;;;;;6215125;23;20435;-86
2023/10/10 10:30:46;;;;;;;0.00;0.00;;;21.20;99.90;;;;;;6240770;23;20027;-86
2023/10/10 10:33:13;;;;;;;0.00;0.00;;;21.00;99.90;;;;;;6215035;23;20008;-85
2023/10/10 10:35:56;;;;;;;0.00;0.00;;;21.00;99.90;;;;;;6215218;23;20431;-85
2023/10/10 10:38:23;;;;;;;0.00;0.00;;;21.10;99.90;;;;;;6214816;23;20008;-84
2023/10/10 10:40:50;;;;;;;0.00;0.00;;;21.00;99.90;;;;;;6216468;23;20853;-85
2023/10/10 10:43:32;;;;;;;0.00;0.00;;;20.90;99.90;;;;;;6214430;23;20005;-85
2023/10/10 10:46:48;;;;;;;0.00;0.00;;;20.90;99.90;;;;;;6213879;23;20004;-86
2023/10/10 10:49:05;;;;;;;0.00;0.00;;;20.90;99.90;;;;;;6235325;23;20019;-86
2023/10/10 10:51:43;;;;;;;0.00;0.00;;;20.60;99.90;;;;;;6215833;23;20340;-83
2023/10/10 10:54:10;;;;;;;0.00;0.00;;;20.70;99.90;;;;;;6212412;23;20443;-85
2023/10/10 10:59:12;;;;;;;0.00;0.00;;;20.60;99.90;;;;;;6241523;23;20087;-86
2023/10/10 11:01:57;;;;;;;0.00;0.00;;;20.70;99.90;;;;;;6214828;23;20011;-86
2023/10/10 11:07:00;;;;;;;0.00;0.00;;;;;;;;;;6252724;23;20004;-84
2023/10/10 11:09:31;;;;;;;0.00;0.00;;;20.30;99.90;;;;;;6242603;23;20300;-83
2023/10/10 11:12:04;;;;;;;0.00;0.00;;;20.10;99.90;;;;;;6214704;22;20012;-85
2023/10/10 11:14:34;;;;;;;0.00;0.00;;;20.00;99.90;;;;;;6214014;23;20016;-86
2023/10/10 11:17:00;;;;;;;0.00;0.00;;;20.00;99.90;;;;;;6215755;23;20015;-86
2023/10/10 11:22:01;;;;;;;0.00;0.00;;;19.90;99.90;;;;;;6259571;22;20012;-86
2023/10/10 11:24:31;;;;;;;0.00;0.00;;;20.00;99.90;;;;;;6219077;23;20008;-84
2023/10/10 11:29:47;;;;;;;0.00;0.00;;;20.10;99.90;;;;;;6244233;23;20012;-87
2023/10/10 11:32:24;;;;;;;0.00;0.00;;;20.20;99.90;;;;;;6218319;22;20073;-87
2023/10/10 11:35:17;;;;;;;0.00;0.00;;;20.40;99.90;;;;;;6217532;23;20099;-89
2023/10/10 11:37:47;;;;;;;0.00;0.00;;;20.50;99.90;;;;;;6216338;23;20011;-85
2023/10/10 11:40:20;;;;;;;0.00;0.00;;;20.80;99.90;;;;;;6215711;23;20083;-87
2023/10/10 11:42:49;;;;;;;0.00;0.00;;;20.70;99.90;;;;;;6217380;23;20105;-87
2023/10/10 11:45:19;;;;;;;0.00;0.00;;;20.70;99.90;;;;;;6216862;23;20101;-88
2023/10/10 11:47:47;;;;;;;0.00;0.00;;;20.70;99.90;;;;;;6245538;23;20042;-87
2023/10/10 11:50:15;;;;;;;0.00;0.00;;;20.60;99.90;;;;;;6218812;23;20004;-88
2023/10/10 11:52:53;;;;;;;0.00;0.00;;;20.70;99.90;;;;;;6217763;23;20004;-88
2023/10/10 11:55:23;;;;;;;0.00;0.00;;;20.70;99.90;;;;;;6245193;23;20435;-89
2023/10/10 11:57:50;;;;;;;0.00;0.00;;;20.80;99.90;;;;;;6218277;23;20513;-86
2023/10/10 12:00:22;;;;;;;0.00;0.00;;;20.80;99.90;;;;;;6216674;23;20355;-87
2023/10/10 12:02:51;;;;;;;0.00;0.00;;;20.80;99.90;;;;;;6217068;23;20039;-88
2023/10/10 12:08:01;;;;;;;0.00;0.00;;;20.80;99.90;;;;;;6255926;23;20004;-86
2023/10/10 12:10:47;;;;;;;0.00;0.00;;;20.80;99.90;;;;;;6218133;23;20316;-84
2023/10/10 12:13:19;;;;;;;0.00;0.00;;;20.70;99.90;;;;;;6218318;23;20043;-84
2023/10/10 12:15:46;;;;;;;0.00;0.00;;;20.80;99.90;;;;;;6217965;23;20008;-85
2023/10/10 12:18:11;;;;;;;0.00;0.00;;;20.80;99.90;;;;;;6218531;23;20324;-87
2023/10/10 12:20:46;;;;;;;0.00;0.00;;;20.70;99.90;;;;;;6217321;23;20015;-87
2023/10/10 12:23:12;;;;;;;0.00;0.00;;;20.60;99.90;;;;;;6217247;23;20398;-85
2023/10/10 12:25:43;;;;;;;0.00;0.00;;;;;;;;;;6215926;23;20008;-86
2023/10/10 12:28:12;;;;;;;0.00;0.00;;;20.60;99.90;;;;;;6215381;23;20055;-86
2023/10/10 12:30:41;;;;;;;0.00;0.00;;;;;;;;;;6217357;23;20089;-84
2023/10/10 12:33:08;;;;;;;0.00;0.00;;;20.50;99.90;;;;;;6217239;23;20661;-87
2023/10/10 12:35:34;;;;;;;0.00;0.00;;;20.50;99.90;;;;;;6217265;23;20431;-85
2023/10/10 12:38:03;;;;;;;0.00;0.00;;;20.60;99.90;;;;;;6217576;23;20008;-87
2023/10/10 12:40:33;;;;;;;0.00;0.00;;;20.50;99.90;;;;;;6215827;23;20011;-87
2023/10/10 12:43:01;;;;;;;0.00;0.00;;;20.70;99.90;;;;;;6217356;23;20011;-85
2023/10/10 12:45:28;;;;;;;0.00;0.00;;;20.70;99.90;;;;;;6215838;23;20008;-86
2023/10/10 12:47:53;;;;;;;0.00;0.00;;;20.60;99.90;;;;;;6215178;23;20008;-86
2023/10/10 12:50:26;;;;;;;0.00;0.00;;;20.80;99.90;;;;;;6217161;23;20004;-86
2023/10/10 12:53:07;;;;;;;0.00;0.00;;;20.80;99.90;;;;;;6216632;23;20004;-85
2023/10/10 12:55:36;;;;;;;0.00;0.00;;;20.70;99.90;;;;;;6216304;23;20007;-85
2023/10/10 12:58:14;;;;;;;0.00;0.00;;;20.90;99.90;;;;;;6215649;23;20016;-84
2023/10/10 13:00:49;;;;;;;0.00;0.00;;;20.90;99.90;;;;;;6216662;23;20152;-85
2023/10/10 13:03:16;;;;;;;0.00;0.00;;;21.20;99.90;;;;;;6216735;23;20054;-85
2023/10/10 13:05:41;;;;;;;0.00;0.00;;;20.80;99.90;;;;;;6217166;23;20091;-84
2023/10/10 13:08:09;;;;;;;0.00;0.00;;;;;;;;;;6216791;23;20023;-84
2023/10/10 13:10:37;;;;;;;0.00;0.00;;;21.00;99.90;;;;;;6215579;23;20499;-85
2023/10/10 13:13:07;;;;;;;0.00;0.00;;;20.90;99.90;;;;;;6243365;22;19996;-84
2023/10/10 13:15:47;;;;;;;0.00;0.00;;;20.90;99.90;;;;;;6217070;23;20008;-84
2023/10/10 13:18:24;;;;;;;0.00;0.00;;;21.00;99.90;;;;;;6210561;23;20008;-84
2023/10/10 13:20:50;;;;;;;0.00;0.00;;;20.90;99.90;;;;;;6214402;23;20016;-84
2023/10/10 13:23:19;;;;;;;0.00;0.00;;;21.10;99.90;;;;;;6214430;23;20004;-85
2023/10/10 13:25:48;;;;;;;0.00;0.00;;;;;;;;;;6215420;23;20015;-86
2023/10/10 13:28:17;;;;;;;0.00;0.00;;;;;;;;;;6217008;23;20376;-84
2023/10/10 13:30:43;;;;;;;0.00;0.00;;;;;;;;;;6213953;23;20000;-87
2023/10/10 13:33:08;;;;;;;0.00;0.00;;;21.00;99.90;;;;;;6215589;23;20227;-84
2023/10/10 13:35:37;;;;;;;0.00;0.00;;;20.80;99.90;;;;;;6215230;23;20092;-83
2023/10/10 13:38:06;;;;;;;0.00;0.00;;;20.90;99.90;;;;;;6216237;23;20466;-85
2023/10/10 13:40:45;;;;;;;;;;;20.80;99.90;;;;;;6242914;23;20003;-84
2023/10/10 13:43:16;;;;;;;0.00;0.00;;;20.90;99.90;;;;;;6216098;23;19903;-84
2023/10/10 13:45:43;;;;;;;0.00;0.00;;;20.80;99.90;;;;;;6215604;23;20004;-84
2023/10/10 13:48:09;;;;;;;0.00;0.00;;;20.80;99.90;;;;;;6213736;23;20031;-83
2023/10/10 13:50:41;;;;;;;0.00;0.00;;;20.70;99.90;;;;;;6214582;23;20004;-84
2023/10/10 13:53:14;;;;;;;0.00;0.00;;;20.80;99.90;;;;;;6215966;23;20725;-85
2023/10/10 13:55:44;;;;;;;0.00;0.00;;;20.80;99.90;;;;;;6215457;23;20028;-85
2023/10/10 13:58:15;;;;;;;0.00;0.00;;;20.80;99.90;;;;;;6216290;23;20000;-85
2023/10/10 14:00:45;;;;;;;0.00;0.00;;;20.90;99.90;;;;;;6216095;23;20493;-84
2023/10/10 14:03:14;;;;;;;0.00;0.00;;;;;;;;;;6216457;23;20004;-84
2023/10/10 14:06:00;;;;;;;0.00;0.00;;;20.80;99.90;;;;;;6215852;23;20012;-85
2023/10/10 14:08:26;;;;;;;0.00;0.00;;;;;;;;;;6215541;23;20006;-84
2023/10/10 14:10:54;;;;;;;0.00;0.00;;;;;;;;;;6215778;23;20420;-85
2023/10/10 14:13:20;;;;;;;0.00;0.00;;;20.70;99.90;;;;;;6215886;23;20344;-84
2023/10/10 14:16:00;;;;;;;0.00;0.00;;;20.80;99.90;;;;;;6215385;23;20004;-83
2023/10/10 14:18:26;;;;;;;0.00;0.00;;;20.70;99.90;;;;;;6215275;23;20035;-84
2023/10/10 14:20:53;;;;;;;0.00;0.00;;;;;;;;;;6241861;23;20007;-85
2023/10/10 14:23:24;;;;;;;0.00;0.00;;;20.80;99.90;;;;;;6243057;22;20012;-84
2023/10/10 14:28:50;;;;;;;0.00;0.00;;;20.60;99.90;;;;;;6241614;23;20007;-84
2023/10/10 14:31:17;;;;;;;0.00;0.00;;;20.70;99.90;;;;;;6214550;23;20003;-86
2023/10/10 14:33:43;;;;;;;0.00;0.00;;;20.60;99.90;;;;;;6214613;23;20001;-85
2023/10/10 14:36:13;;;;;;;0.00;0.00;;;;;;;;;;6214341;23;20093;-85
2023/10/10 14:38:45;;;;;;;0.00;0.00;;;20.50;99.90;;;;;;6241782;23;20010;-84
2023/10/10 14:41:16;;;;;;;0.00;0.00;;;20.40;99.90;;;;;;6241870;23;20000;-85
2023/10/10 14:43:47;;;;;;;0.00;0.00;;;20.50;99.90;;;;;;6214597;23;20431;-83
2023/10/10 14:46:14;;;;;;;0.00;0.00;;;20.50;99.90;;;;;;6214598;23;20039;-85
2023/10/10 14:48:39;;;;;;;0.00;0.00;;;20.50;99.90;;;;;;6214527;23;20011;-85
2023/10/10 14:51:07;;;;;;;0.00;0.00;;;;;;;;;;6214836;23;20004;-85
2023/10/10 14:53:34;;;;;;;0.00;0.00;;;;;;;;;;6214083;23;20091;-83
2023/10/10 14:56:05;;;;;;;0.00;0.00;;;20.10;99.90;;;;;;6211644;23;20435;-87
2023/10/10 14:58:31;;;;;;;0.00;0.00;;;20.20;99.90;;;;;;6188970;23;20024;-86
2023/10/10 15:00:58;;;;;;;0.00;0.00;;;20.00;99.90;;;;;;6214278;23;20016;-85
2023/10/10 15:03:25;;;;;;;0.00;0.00;;;20.00;99.90;;;;;;6214086;23;20110;-85
2023/10/10 15:05:51;;;;;;;0.00;0.00;;;19.70;99.90;;;;;;6213965;23;20008;-83
2023/10/10 15:08:22;;;;;;;0.00;0.00;;;19.80;99.90;;;;;;6215174;23;19992;-86
2023/10/10 15:10:51;;;;;;;0.00;0.00;;;19.70;99.90;;;;;;6241416;23;19996;-85
2023/10/10 15:13:17;;;;;;;0.00;0.00;;;19.70;99.90;;;;;;6214073;23;20007;-85
2023/10/10 15:15:48;;;;;;;0.00;0.00;;;19.60;99.90;;;;;;6212483;23;20008;-85
2023/10/10 15:18:16;;;;;;;0.00;0.00;;;19.60;99.90;;;;;;6215364;23;20008;-85
2023/10/10 15:20:46;;;;;;;0.00;0.00;;;19.40;99.90;;;;;;6214311;23;20083;-85
2023/10/10 15:23:21;;;;;;;0.00;0.00;;;19.50;99.90;;;;;;6214888;23;20008;-86
2023/10/10 15:25:56;;;;;;;0.00;0.00;;;19.40;99.90;;;;;;6240625;23;20440;-84
2023/10/10 15:28:23;;;;;;;0.00;0.00;;;19.60;99.90;;;;;;6241745;23;20003;-84
2023/10/10 15:30:49;;;;;;;0.00;0.00;;;19.50;99.90;;;;;;6214034;23;20047;-85
2023/10/10 15:33:18;;;;;;;0.00;0.00;;;;;;;;;;6213330;23;19996;-83
2023/10/10 15:35:49;;;;;;;0.00;0.00;;;19.60;99.90;;;;;;6214226;23;20004;-85
2023/10/10 15:38:15;;;;;;;0.00;0.00;;;19.40;99.90;;;;;;6214932;23;20482;-84
2023/10/10 15:40:43;;;;;;;0.00;0.00;;;;;;;;;;6213205;23;20030;-84
2023/10/10 15:43:12;;;;;;;0.00;0.00;;;19.50;99.90;;;;;;6189271;23;20005;-84
2023/10/10 15:45:42;;;;;;;0.00;0.00;;;19.60;99.90;;;;;;6215338;23;20004;-81
2023/10/10 15:48:25;;;;;;;0.00;0.00;;;19.60;99.90;;;;;;6213544;23;20087;-85
2023/10/10 15:50:52;;;;;;;0.00;0.00;;;19.30;99.90;;;;;;6213927;23;20383;-87
2023/10/10 15:53:24;;;;;;;0.00;0.00;;;19.40;99.90;;;;;;6189340;23;20062;-85
2023/10/10 15:58:42;;;;;;;0.00;0.00;;;19.30;99.90;;;;;;6241525;23;20022;-80
2023/10/10 16:01:12;;;;;;;0.00;0.00;;;19.30;99.90;;;;;;6192458;23;20081;-85
2023/10/10 16:03:51;;;;;;;0.00;0.00;;;19.10;99.90;;;;;;6265959;22;20003;-80
2023/10/10 16:06:22;;;;;;;0.00;0.00;;;19.00;99.90;;;;;;6221406;23;20004;-87
2023/10/10 16:08:49;;;;;;;0.00;0.00;;;19.00;99.90;;;;;;6217155;23;20428;-87
2023/10/10 16:11:16;;;;;;;0.00;0.00;;;18.90;99.90;;;;;;6217947;23;20000;-88
2023/10/10 16:13:41;;;;;;;0.00;0.00;;;18.90;99.90;;;;;;6216673;23;20091;-87
2023/10/10 16:16:07;;;;;;;0.00;0.00;;;18.70;99.90;;;;;;6243768;23;20007;-86